Time;durP1;ratioP1;P1;durP2;ratioP2;P2;SDS_P1;SDS_P2;PMS_P1;PMS_P2;Temp;Humidity;BMP_temperature;BMP_pressure;BME280_temperature;BME280_humidity;BME280_pressure;Samples;Min_cycle;Max_cycle;Signal;HPM_P1;HPM_P2
2022/06/04 00:00:26;;;;;;;10.98;6.40;;;;;;;20.11;nan;100764.97;5112506;28;20030;-66
2022/06/04 00:02:52;;;;;;;9.38;6.80;;;;;;;20.08;nan;100765.53;5094764;28;20081;-67
2022/06/04 00:05:23;;;;;;;15.85;7.45;;;;;;;20.06;nan;100762.31;5114181;28;21950;-67
2022/06/04 00:07:50;;;;;;;11.43;7.47;;;;;;;19.96;nan;100752.50;5112636;28;20046;-67
2022/06/04 00:15:50;;;;;;;13.93;8.23;;;;;;;19.83;nan;100753.94;5109466;28;20027;-65
2022/06/04 00:18:16;;;;;;;15.00;8.70;;;;;;;19.72;nan;100736.38;5112204;28;20031;-67
2022/06/04 00:20:42;;;;;;;13.30;8.48;;;;;;;19.76;nan;100754.25;5112879;28;20236;-67
2022/06/04 00:23:09;;;;;;;14.23;8.30;;;;;;;19.72;nan;100750.53;5113314;28;20453;-67
2022/06/04 00:25:37;;;;;;;13.40;7.93;;;;;;;19.71;nan;100753.50;5113494;28;20034;-67
2022/06/04 00:28:06;;;;;;;12.48;8.85;;;;;;;19.61;nan;100749.00;5093432;28;20737;-66
2022/06/04 00:30:32;;;;;;;15.02;8.35;;;;;;;19.67;nan;100761.22;5112995;28;20039;-67
2022/06/04 00:32:57;;;;;;;14.73;8.45;;;;;;;19.65;nan;100751.88;5114411;28;20495;-66
2022/06/04 00:35:23;;;;;;;16.15;8.65;;;;;;;19.59;nan;100751.13;5113619;28;20545;-67
2022/06/04 00:37:49;;;;;;;17.23;9.02;;;;;;;19.53;nan;100744.22;5114163;28;20044;-66
2022/06/04 00:40:24;;;;;;;16.20;9.00;;;;;;;19.54;nan;100743.94;5093746;28;20043;-65
2022/06/04 00:42:50;;;;;;;17.92;8.85;;;;;;;19.51;nan;100746.34;5111913;28;20077;-67
2022/06/04 00:45:21;;;;;;;16.85;9.38;;;;;;;19.49;nan;100746.66;5112311;28;20035;-67
2022/06/04 00:47:48;;;;;;;14.27;8.93;;;;;;;19.43;nan;100739.72;5113635;28;20040;-67
2022/06/04 00:50:20;;;;;;;12.10;8.15;;;;;;;19.39;nan;100736.00;5112236;28;20027;-67
2022/06/04 00:52:49;;;;;;;12.52;8.75;;;;;;;19.38;nan;100739.75;5110506;28;20043;-66
2022/06/04 00:55:16;;;;;;;14.63;9.32;;;;;;;19.16;nan;100701.97;5111820;28;20048;-67
2022/06/04 00:58:10;;;;;;;16.63;9.65;;;;;;;19.34;nan;100736.81;5112928;28;20127;-66
2022/06/04 01:00:46;;;;;;;14.77;8.93;;;;;;;19.28;nan;100726.47;5100057;28;20031;-67
2022/06/04 01:03:29;;;;;;;14.52;8.85;;;;;;;19.36;nan;100739.22;5111034;28;20050;-67
2022/06/04 01:06:27;;;;;;;16.73;9.40;;;;;;;19.32;nan;100733.66;5104474;28;20051;-66
2022/06/04 01:09:11;;;;;;;18.75;9.93;;;;;;;19.36;nan;100736.56;5111648;28;20475;-66
2022/06/04 01:12:10;;;;;;;15.85;9.43;;;;;;;19.38;nan;100730.97;5111116;28;20211;-66
2022/06/04 01:15:14;;;;;;;17.77;9.27;;;;;;;19.40;nan;100736.81;5093880;28;20046;-66
2022/06/04 01:17:42;;;;;;;13.68;9.15;;;;;;;19.42;nan;100740.81;5029672;28;20455;-66
2022/06/04 01:20:27;;;;;;;20.88;9.30;;;;;;;19.44;nan;100744.00;5030721;28;20029;-67
2022/06/04 01:22:58;;;;;;;14.70;9.15;;;;;;;19.44;nan;100745.88;5026292;28;20038;-67
2022/06/04 01:25:36;;;;;;;16.75;9.32;;;;;;;19.44;nan;100727.16;5027216;28;20763;-66
2022/06/04 01:28:07;;;;;;;14.48;8.82;;;;;;;19.42;nan;100731.97;5027008;28;20049;-66
2022/06/04 01:31:03;;;;;;;14.40;9.98;;;;;;;19.41;nan;100731.19;5027192;28;20025;-67
2022/06/04 01:33:33;;;;;;;16.38;9.10;;;;;;;19.43;nan;100733.59;5027007;28;20041;-67
2022/06/04 01:36:06;;;;;;;17.38;9.70;;;;;;;19.42;nan;100726.63;5028125;28;20117;-67
2022/06/04 01:38:34;;;;;;;14.27;9.30;;;;;;;18.71;nan;100625.28;5022497;28;20045;-67
2022/06/04 01:41:41;;;;;;;18.42;9.73;;;;;;;19.40;nan;100732.28;5032531;28;20115;-67
2022/06/04 01:44:15;;;;;;;18.33;9.23;;;;;;;19.40;nan;100732.28;5023963;28;20124;-67
2022/06/04 01:46:48;;;;;;;19.73;9.85;;;;;;;19.30;nan;100719.78;5029046;28;20044;-67
2022/06/04 01:49:25;;;;;;;20.73;13.73;;;;;;;19.40;nan;100739.50;5030282;28;20103;-67
2022/06/04 01:51:54;;;;;;;15.48;10.02;;;;;;;19.40;nan;100729.59;5072952;28;20116;-67
2022/06/04 01:54:25;;;;;;;15.23;9.68;;;;;;;19.37;nan;100740.03;5111414;28;20020;-66
2022/06/04 01:56:55;;;;;;;16.65;9.70;;;;;;;19.36;nan;100746.44;5111210;28;20154;-66
2022/06/04 01:59:34;;;;;;;18.13;9.60;;;;;;;19.37;nan;100754.19;5093160;28;20484;-67
2022/06/04 02:02:04;;;;;;;17.38;9.75;;;;;;;19.32;nan;100754.19;5109933;28;20039;-67
2022/06/04 02:04:37;;;;;;;15.85;9.57;;;;;;;19.37;nan;100764.06;5111645;28;20062;-66
2022/06/04 02:09:59;;;;;;;12.73;9.80;;;;;;;19.33;nan;100772.63;5104879;28;20043;-66
2022/06/04 02:12:24;;;;;;;17.52;10.02;;;;;;;19.33;nan;100774.50;5107188;28;20040;-66
2022/06/04 02:14:50;;;;;;;25.02;10.27;;;;;;;19.32;nan;100784.38;5112031;28;20023;-67
2022/06/04 02:17:23;;;;;;;18.05;9.95;;;;;;;19.33;nan;100785.19;5109503;28;20027;-66
2022/06/04 02:19:48;;;;;;;19.63;10.20;;;;;;;19.23;nan;100780.69;5092325;28;20040;-66
2022/06/04 02:22:14;;;;;;;18.40;10.10;;;;;;;19.30;nan;100791.88;5110900;28;20527;-67
2022/06/04 02:24:41;;;;;;;18.83;10.55;;;;;;;19.30;nan;100799.09;5110593;28;20027;-67
2022/06/04 02:27:08;;;;;;;14.85;10.40;;;;;;;19.24;nan;100798.28;5110402;28;20435;-67
2022/06/04 02:29:34;;;;;;;16.67;11.02;;;;;;;19.24;nan;100794.81;5110488;28;20088;-67
2022/06/04 02:32:18;;;;;;;15.50;9.82;;;;;;;19.30;nan;100810.56;5110010;28;20050;-66
2022/06/04 02:35:00;;;;;;;18.23;10.15;;;;;;;19.30;nan;100804.44;5109022;28;20777;-67
2022/06/04 02:37:41;;;;;;;15.65;10.38;;;;;;;19.28;nan;100799.34;5110458;28;20043;-67
2022/06/04 02:40:12;;;;;;;13.48;10.45;;;;;;;19.25;nan;100796.41;5108866;28;20059;-65
2022/06/04 02:42:55;;;;;;;16.52;10.27;;;;;;;19.30;nan;100805.22;5093002;28;20065;-67
2022/06/04 02:45:30;;;;;;;17.30;10.88;;;;;;;19.26;nan;100798.81;5105761;28;20040;-66
2022/06/04 02:47:59;;;;;;;17.30;11.25;;;;;;;19.29;nan;100803.59;5109976;28;20043;-66
2022/06/04 02:50:27;;;;;;;20.60;11.75;;;;;;;19.21;nan;100787.38;5090936;28;20066;-67
2022/06/04 02:52:55;;;;;;;16.92;10.65;;;;;;;19.29;nan;100806.28;5108154;28;20042;-67
2022/06/04 02:55:28;;;;;;;14.10;11.27;;;;;;;19.28;nan;100796.69;5108037;28;20088;-66
2022/06/04 02:57:59;;;;;;;17.00;11.18;;;;;;;19.29;nan;100786.78;5110765;28;20393;-66
2022/06/04 03:00:26;;;;;;;17.60;11.75;;;;;;;19.29;nan;100781.47;5108259;28;20124;-66
2022/06/04 03:02:52;;;;;;;17.95;11.35;;;;;;;19.27;nan;100771.03;5110429;28;20039;-67
2022/06/04 03:05:20;;;;;;;17.52;11.20;;;;;;;19.28;nan;100779.88;5088515;28;20385;-66
2022/06/04 03:07:50;;;;;;;14.45;10.90;;;;;;;19.30;nan;100780.41;5110752;28;20413;-66
2022/06/04 03:10:23;;;;;;;20.48;12.18;;;;;;;19.25;nan;100775.06;5110019;28;20047;-66
2022/06/04 03:12:48;;;;;;;20.52;12.10;;;;;;;19.28;nan;100761.97;5110415;28;20035;-66
2022/06/04 03:15:15;;;;;;;15.40;11.55;;;;;;;19.31;nan;100760.63;5078012;28;20024;-64
2022/06/04 03:17:44;;;;;;;14.70;11.65;;;;;;;19.30;nan;100753.69;5080978;28;20035;-67
2022/06/04 03:20:11;;;;;;;18.35;12.55;;;;;;;19.27;nan;100752.34;5109803;28;20515;-67
2022/06/04 03:22:37;;;;;;;16.45;12.23;;;;;;;19.29;nan;100750.22;5111176;28;20046;-66
2022/06/04 03:25:03;;;;;;;16.90;11.90;;;;;;;19.33;nan;100745.13;5108707;28;20028;-66
2022/06/04 03:27:29;;;;;;;14.00;11.38;;;;;;;19.33;nan;100745.91;5111022;28;20147;-67
2022/06/04 03:29:54;;;;;;;15.38;11.63;;;;;;;19.33;nan;100740.59;5110067;28;20110;-66
2022/06/04 03:32:20;;;;;;;17.15;11.88;;;;;;;19.22;nan;100717.66;5113755;28;20396;-67
2022/06/04 03:34:45;;;;;;;17.60;11.63;;;;;;;19.28;nan;100726.47;5113572;28;20085;-67
2022/06/04 03:37:11;;;;;;;16.88;11.27;;;;;;;19.24;nan;100706.72;5093810;28;20096;-67
2022/06/04 03:39:37;;;;;;;13.85;11.20;;;;;;;19.20;nan;100700.31;5113727;28;20405;-67
2022/06/04 03:42:04;;;;;;;18.17;11.52;;;;;;;19.20;nan;100701.16;5113741;28;20062;-67
2022/06/04 03:44:29;;;;;;;17.13;12.00;;;;;;;19.18;nan;100699.78;5095621;28;20542;-67
2022/06/04 03:46:55;;;;;;;17.73;11.98;;;;;;;19.17;nan;100698.22;5092648;28;20051;-65
2022/06/04 03:49:21;;;;;;;16.02;11.93;;;;;;;19.18;nan;100697.94;5110914;28;20059;-66
2022/06/04 03:51:47;;;;;;;18.42;12.07;;;;;;;19.12;nan;100683.03;5113562;28;20073;-66
2022/06/04 03:54:13;;;;;;;20.13;12.85;;;;;;;19.14;nan;100678.22;5114337;28;20066;-66
2022/06/04 03:56:38;;;;;;;20.55;12.55;;;;;;;19.15;nan;100682.47;5112554;28;20114;-66
2022/06/04 03:59:04;;;;;;;21.17;12.20;;;;;;;19.11;nan;100681.44;5114344;28;20027;-66
2022/06/04 04:01:31;;;;;;;18.95;12.25;;;;;;;19.18;nan;100689.94;5113438;28;20139;-66
2022/06/04 04:03:58;;;;;;;24.60;12.85;;;;;;;19.21;nan;100692.06;5107629;28;20028;-66
2022/06/04 04:06:30;;;;;;;15.40;12.23;;;;;;;19.31;nan;100694.66;5112331;28;20031;-66
2022/06/04 04:08:56;;;;;;;22.20;12.13;;;;;;;19.32;nan;100695.44;5113103;28;20042;-66
2022/06/04 04:11:24;;;;;;;16.52;11.50;;;;;;;19.26;nan;100681.34;5112163;28;20842;-66
2022/06/04 04:13:51;;;;;;;19.38;12.15;;;;;;;19.36;nan;100693.84;5113495;28;20108;-67
2022/06/04 04:16:18;;;;;;;23.85;12.02;;;;;;;19.35;nan;100689.59;5111751;28;20063;-67
2022/06/04 04:18:44;;;;;;;17.75;11.98;;;;;;;19.38;nan;100693.56;5107030;28;20027;-67
2022/06/04 04:21:13;;;;;;;15.68;11.70;;;;;;;19.32;nan;100685.59;5112403;28;20137;-67
2022/06/04 04:23:39;;;;;;;14.65;11.85;;;;;;;19.36;nan;100687.69;5107305;28;20090;-68
2022/06/04 04:26:07;;;;;;;20.85;12.13;;;;;;;19.30;nan;100677.06;5108077;28;20031;-66
2022/06/04 04:28:33;;;;;;;17.60;12.20;;;;;;;19.33;nan;100684.50;5111349;28;20042;-68
2022/06/04 04:30:59;;;;;;;17.25;12.45;;;;;;;19.30;nan;100669.03;5105848;28;20031;-66
2022/06/04 04:33:25;;;;;;;18.92;11.95;;;;;;;19.23;nan;100659.75;5108701;28;20035;-66
2022/06/04 04:35:50;;;;;;;19.63;12.32;;;;;;;19.34;nan;100669.28;5112984;28;20093;-67
2022/06/04 04:38:21;;;;;;;15.73;12.32;;;;;;;19.36;nan;100672.47;5091314;28;20497;-67
2022/06/04 04:40:47;;;;;;;18.92;12.50;;;;;;;19.39;nan;100671.13;5090296;28;20052;-67
2022/06/04 04:43:14;;;;;;;20.45;13.02;;;;;;;19.46;nan;100684.97;5090294;28;20035;-66
2022/06/04 04:45:42;;;;;;;19.58;12.35;;;;;;;19.55;nan;100691.31;5090790;28;20039;-68
2022/06/04 04:48:07;;;;;;;19.52;11.63;;;;;;;19.55;nan;100694.78;5084856;28;20040;-67
2022/06/04 04:50:37;;;;;;;19.15;11.07;;;;;;;19.63;nan;100706.75;5091319;28;20032;-68
2022/06/04 04:53:03;;;;;;;;;;;;;;;19.66;nan;100703.53;5092138;28;20021;-66
2022/06/04 04:55:29;;;;;;;15.43;11.52;;;;;;;19.66;nan;100706.22;5085469;28;19976;-66
2022/06/04 04:57:55;;;;;;;14.05;11.27;;;;;;;19.66;nan;100708.09;5090962;28;20032;-68
2022/06/04 05:00:21;;;;;;;16.63;11.77;;;;;;;19.62;nan;100702.50;5091584;28;20043;-67
2022/06/04 05:02:47;;;;;;;19.40;11.55;;;;;;;19.74;nan;100727.00;5092432;28;20546;-67
2022/06/04 05:05:13;;;;;;;16.77;10.95;;;;;;;19.67;nan;100715.81;5091924;28;20122;-65
2022/06/04 05:07:40;;;;;;;24.40;11.10;;;;;;;19.75;nan;100727.81;5091059;28;20074;-65
2022/06/04 05:10:09;;;;;;;19.25;11.35;;;;;;;19.82;nan;100728.28;5090269;28;20482;-64
2022/06/04 05:12:44;;;;;;;17.70;11.27;;;;;;;19.83;nan;100729.91;5090344;28;20036;-67
2022/06/04 05:15:10;;;;;;;19.48;11.73;;;;;;;19.87;nan;100744.31;5090870;28;20493;-66
2022/06/04 05:17:35;;;;;;;18.58;11.30;;;;;;;19.88;nan;100743.22;5091680;28;20055;-68
2022/06/04 05:20:04;;;;;;;21.73;11.73;;;;;;;19.82;nan;100720.25;5091183;28;20469;-65
2022/06/04 05:22:29;;;;;;;16.80;12.00;;;;;;;19.90;nan;100732.25;5088812;28;20060;-65
2022/06/04 05:24:55;;;;;;;22.13;12.35;;;;;;;19.93;nan;100743.19;5087990;28;20070;-66
2022/06/04 05:27:20;;;;;;;16.48;11.65;;;;;;;19.95;nan;100734.88;5085769;28;20048;-67
2022/06/04 05:29:46;;;;;;;14.40;12.05;;;;;;;19.90;nan;100716.22;5087788;28;20618;-67
2022/06/04 05:32:11;;;;;;;17.92;11.57;;;;;;;20.00;nan;100731.38;5090305;28;20470;-67
2022/06/04 05:34:37;;;;;;;21.27;12.98;;;;;;;20.02;nan;100722.00;5083404;28;20031;-67
2022/06/04 05:37:03;;;;;;;18.17;11.82;;;;;;;20.04;nan;100711.00;5089189;28;20039;-67
2022/06/04 05:39:32;;;;;;;17.38;12.80;;;;;;;20.11;nan;100709.63;5105244;28;20047;-66
2022/06/04 05:41:59;;;;;;;21.40;13.32;;;;;;;20.16;nan;100701.56;5111974;28;20032;-66
2022/06/04 05:44:26;;;;;;;19.95;12.18;;;;;;;20.13;nan;100686.06;5107898;28;20042;-67
2022/06/04 05:46:51;;;;;;;18.50;11.93;;;;;;;20.16;nan;100682.03;5110691;28;20078;-67
2022/06/04 05:49:18;;;;;;;19.25;12.57;;;;;;;20.27;nan;100688.09;5107244;28;20488;-68
2022/06/04 05:51:44;;;;;;;18.92;11.27;;;;;;;20.31;nan;100684.56;5102875;28;20032;-68
2022/06/04 05:54:12;;;;;;;19.23;11.82;;;;;;;20.34;nan;100680.53;5104398;28;20027;-67
2022/06/04 05:56:40;;;;;;;19.63;12.13;;;;;;;20.42;nan;100674.53;5106601;28;20035;-67
2022/06/04 05:59:09;;;;;;;15.00;12.10;;;;;;;20.49;nan;100671.53;5109162;28;20074;-67
2022/06/04 06:01:38;;;;;;;14.77;11.57;;;;;;;20.56;nan;100664.00;5104057;28;20027;-67
2022/06/04 06:04:05;;;;;;;16.48;11.35;;;;;;;20.54;nan;100655.41;5089199;28;20024;-66
2022/06/04 06:06:33;;;;;;;22.23;11.55;;;;;;;20.69;nan;100662.53;5111312;28;20039;-66
2022/06/04 06:09:03;;;;;;;19.02;11.57;;;;;;;20.77;nan;100664.56;5110312;28;20059;-65
2022/06/04 06:11:29;;;;;;;19.10;11.32;;;;;;;20.80;nan;100659.41;5111249;28;20027;-66
2022/06/04 06:13:54;;;;;;;20.90;11.65;;;;;;;20.92;nan;100656.31;5108070;28;20031;-69
2022/06/04 06:16:26;;;;;;;19.65;11.57;;;;;;;20.97;nan;100650.94;5106443;28;20291;-69
2022/06/04 06:18:51;;;;;;;19.50;10.70;;;;;;;21.07;nan;100651.84;5110739;28;20104;-70
2022/06/04 06:21:20;;;;;;;17.20;10.95;;;;;;;21.13;nan;100654.16;5111649;28;20469;-70
2022/06/04 06:23:46;;;;;;;18.20;10.18;;;;;;;21.11;nan;100642.16;5087067;28;20039;-71
2022/06/04 06:26:15;;;;;;;20.80;10.18;;;;;;;21.28;nan;100669.22;5108836;28;20032;-70
2022/06/04 06:28:42;;;;;;;23.80;10.13;;;;;;;21.28;nan;100669.22;5110795;28;20039;-71
2022/06/04 06:31:11;;;;;;;15.45;10.68;;;;;;;21.39;nan;100675.25;5111280;28;20028;-70
2022/06/04 06:33:36;;;;;;;15.63;9.73;;;;;;;21.36;nan;100663.22;5109853;28;20042;-71
2022/06/04 06:36:05;;;;;;;21.85;9.50;;;;;;;21.47;nan;100677.28;5109731;28;20732;-70
2022/06/04 06:38:30;;;;;;;22.63;9.60;;;;;;;21.57;nan;100673.66;5109644;28;20079;-71
2022/06/04 06:40:58;;;;;;;18.77;8.88;;;;;;;21.66;nan;100667.34;5086412;28;20082;-71
2022/06/04 06:43:32;;;;;;;13.35;8.85;;;;;;;21.74;nan;100671.25;5109257;28;20497;-71
2022/06/04 06:46:07;;;;;;;11.93;8.30;;;;;;;21.73;nan;100650.88;5111329;28;20073;-71
2022/06/04 06:48:34;;;;;;;13.93;9.38;;;;;;;21.89;nan;100675.56;5110307;28;20393;-71
2022/06/04 06:51:07;;;;;;;12.50;8.95;;;;;;;22.02;nan;100687.41;5111372;28;20031;-72
2022/06/04 06:53:33;;;;;;;13.07;9.48;;;;;;;22.00;nan;100674.28;5109974;28;20031;-71
2022/06/04 06:56:11;;;;;;;17.92;9.20;;;;;;;22.15;nan;100680.47;5111053;28;20027;-71
2022/06/04 06:58:36;;;;;;;12.32;8.93;;;;;;;22.18;nan;100683.38;5092138;28;20061;-71
2022/06/04 07:01:02;;;;;;;9.95;8.52;;;;;;;22.28;nan;100691.25;5110811;28;20036;-71
2022/06/04 07:03:28;;;;;;;11.25;8.00;;;;;;;22.33;nan;100678.84;5110090;28;20031;-71
2022/06/04 07:05:55;;;;;;;15.18;8.13;;;;;;;22.24;nan;100649.22;5089576;28;20415;-71
2022/06/04 07:08:21;;;;;;;11.35;8.25;;;;;;;22.65;nan;100668.03;5109876;28;20030;-71
2022/06/04 07:10:47;;;;;;;12.23;8.32;;;;;;;22.64;nan;100661.06;5110658;28;20512;-72
2022/06/04 07:13:12;;;;;;;10.93;7.63;;;;;;;22.78;nan;100671.78;5090669;28;20028;-71
2022/06/04 07:15:37;;;;;;;14.55;7.70;;;;;;;22.85;nan;100657.97;5109635;28;20374;-69
2022/06/04 07:18:03;;;;;;;11.65;7.25;;;;;;;22.91;nan;100659.44;5110087;28;20549;-69
2022/06/04 07:20:28;;;;;;;12.57;8.23;;;;;;;23.04;nan;100661.34;5109659;28;20069;-72
2022/06/04 07:22:54;;;;;;;12.77;8.23;;;;;;;23.19;nan;100656.72;5109092;28;20453;-72
2022/06/04 07:25:21;;;;;;;12.10;7.90;;;;;;;23.30;nan;100668.84;5110560;28;20115;-71
2022/06/04 07:27:47;;;;;;;10.35;7.10;;;;;;;23.39;nan;100660.81;5109414;28;20039;-71
2022/06/04 07:30:12;;;;;;;9.20;7.00;;;;;;;23.49;nan;100665.97;5107719;28;20028;-71
2022/06/04 07:32:38;;;;;;;10.40;7.25;;;;;;;23.60;nan;100655.75;5110086;28;20046;-71
2022/06/04 07:35:04;;;;;;;8.13;6.88;;;;;;;23.66;nan;100646.47;5110867;28;20496;-72
2022/06/04 07:37:29;;;;;;;9.20;7.45;;;;;;;23.71;nan;100631.00;5088793;28;20364;-70
2022/06/04 07:39:55;;;;;;;13.43;7.10;;;;;;;23.90;nan;100643.50;5110398;28;20147;-72
2022/06/04 07:42:20;;;;;;;13.10;7.22;;;;;;;24.02;nan;100638.31;5109952;28;20040;-71
2022/06/04 07:44:46;;;;;;;11.98;6.90;;;;;;;24.05;nan;100626.16;5091015;28;20790;-71
2022/06/04 07:47:12;;;;;;;12.02;6.43;;;;;;;24.05;nan;100605.41;5108127;28;20111;-71
2022/06/04 07:49:37;;;;;;;12.13;6.63;;;;;;;24.22;nan;100612.75;5110025;28;20055;-71
2022/06/04 07:52:03;;;;;;;12.35;5.90;;;;;;;24.41;nan;100617.88;5109407;28;20027;-71
2022/06/04 07:54:30;;;;;;;15.45;6.40;;;;;;;24.53;nan;100622.69;5110000;28;20491;-72
2022/06/04 07:56:56;;;;;;;9.00;6.40;;;;;;;24.61;nan;100616.53;5089945;28;20064;-71
2022/06/04 07:59:21;;;;;;;9.73;6.45;;;;;;;24.73;nan;100619.41;5107518;28;20142;-71
2022/06/04 08:01:47;;;;;;;10.60;6.13;;;;;;;24.76;nan;100623.38;5109255;28;20032;-71
2022/06/04 08:04:13;;;;;;;10.60;6.40;;;;;;;24.92;nan;100621.00;5091197;28;20031;-72
2022/06/04 08:06:39;;;;;;;18.85;6.90;;;;;;;25.03;nan;100620.38;5108847;28;20035;-71
2022/06/04 08:09:04;;;;;;;9.77;6.13;;;;;;;25.09;nan;100604.84;5108289;28;20423;-71
2022/06/04 08:11:33;;;;;;;13.38;6.50;;;;;;;25.24;nan;100563.19;5109773;28;20035;-72
2022/06/04 08:14:07;;;;;;;9.48;6.03;;;;;;;25.34;nan;100575.53;5101882;28;20071;-68
2022/06/04 08:16:35;;;;;;;13.90;5.75;;;;;;;25.47;nan;100572.63;5110078;28;20032;-71
2022/06/04 08:19:00;;;;;;;7.40;5.47;;;;;;;25.55;nan;100573.75;5112577;28;20035;-69
2022/06/04 08:21:26;;;;;;;7.32;4.82;;;;;;;25.63;nan;100578.31;5084579;28;20039;-70
2022/06/04 08:23:51;;;;;;;8.02;6.00;;;;;;;25.73;nan;100579.06;5111603;28;20408;-69
2022/06/04 08:26:17;;;;;;;8.93;5.20;;;;;;;25.74;nan;100556.38;5113166;28;20478;-69
2022/06/04 08:28:43;;;;;;;8.55;4.97;;;;;;;25.89;nan;100583.66;5111813;28;21714;-68
2022/06/04 08:31:11;;;;;;;10.68;5.82;;;;;;;25.92;nan;100557.91;5113847;28;20469;-68
2022/06/04 08:33:37;;;;;;;10.45;5.57;;;;;;;25.98;nan;100618.69;5112492;28;20040;-70
2022/06/04 08:36:11;;;;;;;8.80;5.70;;;;;;;26.15;nan;100565.75;5093214;28;20035;-65
2022/06/04 08:38:37;;;;;;;9.13;5.30;;;;;;;26.19;nan;100580.19;5109944;28;20047;-69
2022/06/04 08:41:07;;;;;;;10.88;5.05;;;;;;;26.21;nan;100556.34;5112807;28;20024;-69
2022/06/04 08:43:45;;;;;;;9.13;5.07;;;;;;;26.28;nan;100576.31;5093552;28;20050;-68
2022/06/04 08:46:32;;;;;;;10.67;5.20;;;;;;;26.37;nan;100576.28;5107593;28;20028;-68
2022/06/04 08:49:05;;;;;;;11.25;5.50;;;;;;;26.36;nan;100552.28;5090164;28;20280;-67
2022/06/04 08:51:31;;;;;;;10.95;5.47;;;;;;;26.47;nan;100562.38;5110743;28;20096;-68
2022/06/04 08:53:58;;;;;;;8.25;5.30;;;;;;;26.54;nan;100577.31;5112103;28;20040;-68
2022/06/04 08:59:40;;;;;;;6.47;4.88;;;;;;;26.75;nan;100542.19;5110877;28;20032;-68
2022/06/04 09:02:15;;;;;;;8.40;5.22;;;;;;;26.76;nan;100549.97;5112225;28;20032;-67
2022/06/04 09:04:43;;;;;;;8.15;5.10;;;;;;;26.87;nan;100567.34;5111865;28;20366;-64
2022/06/04 09:07:31;;;;;;;10.95;5.05;;;;;;;26.92;nan;100532.03;5111735;28;20089;-68
2022/06/04 09:10:12;;;;;;;10.93;5.03;;;;;;;26.95;nan;100574.59;5110803;28;20036;-65
2022/06/04 09:12:43;;;;;;;7.25;4.93;;;;;;;26.92;nan;100536.63;5103171;28;20063;-66
2022/06/04 09:15:26;;;;;;;6.10;4.65;;;;;;;27.06;nan;100509.34;5087013;28;20039;-68
2022/06/04 09:17:53;;;;;;;10.43;5.22;;;;;;;27.08;nan;100551.13;5081332;28;20126;-69
2022/06/04 09:20:31;;;;;;;6.35;4.75;;;;;;;27.09;nan;100546.50;5108489;28;20027;-68
2022/06/04 09:23:41;;;;;;;8.23;5.05;;;;;;;27.12;nan;100551.22;5110679;28;20039;-68
2022/06/04 09:26:21;;;;;;;9.60;5.30;;;;;;;27.23;nan;100530.81;5101339;28;20523;-67
2022/06/04 09:29:19;;;;;;;10.48;5.53;;;;;;;27.26;nan;100561.78;5105388;28;20398;-67
2022/06/04 09:32:00;;;;;;;7.90;4.55;;;;;;;27.27;nan;100539.84;5104845;28;20590;-68
2022/06/04 09:34:39;;;;;;;7.97;5.13;;;;;;;27.30;nan;100547.28;5106627;28;20031;-69
2022/06/04 09:37:08;;;;;;;10.45;4.72;;;;;;;27.33;nan;100532.28;5086345;28;20042;-69
2022/06/04 09:39:35;;;;;;;;;;;;;;;27.39;nan;100532.84;5105293;28;20059;-68
2022/06/04 09:42:13;;;;;;;7.35;5.40;;;;;;;27.47;nan;100531.97;5109138;28;19915;-69
2022/06/04 09:44:52;;;;;;;11.82;5.03;;;;;;;27.60;nan;100557.13;5104566;28;20080;-69
2022/06/04 09:47:20;;;;;;;10.80;5.32;;;;;;;27.68;nan;100546.22;5097999;28;20043;-69
2022/06/04 09:50:05;;;;;;;7.20;5.45;;;;;;;27.70;nan;100535.84;5110454;28;20046;-67
2022/06/04 09:52:43;;;;;;;8.40;4.80;;;;;;;27.73;nan;100478.34;5100563;28;20059;-68
2022/06/04 09:55:15;;;;;;;7.32;5.13;;;;;;;27.77;nan;100538.78;5090081;28;20051;-69
2022/06/04 09:57:41;;;;;;;8.95;5.10;;;;;;;27.77;nan;100503.59;5109496;28;20470;-68
2022/06/04 10:00:28;;;;;;;7.47;4.97;;;;;;;27.80;nan;100564.38;5103687;27;20455;-68
2022/06/04 10:03:00;;;;;;;8.27;5.07;;;;;;;27.79;nan;100530.31;5080628;28;20063;-67
2022/06/04 10:05:28;;;;;;;8.63;5.22;;;;;;;27.71;nan;100572.59;5088333;28;20028;-67
2022/06/04 10:07:55;;;;;;;7.15;4.55;;;;;;;27.79;nan;100536.50;5079523;28;20031;-67
2022/06/04 10:10:38;;;;;;;7.05;4.93;;;;;;;27.73;nan;100502.69;5102466;28;20123;-67
2022/06/04 10:16:19;;;;;;;8.88;5.20;;;;;;;27.87;nan;100536.75;5101938;28;20488;-68
2022/06/04 10:19:02;;;;;;;9.32;5.50;;;;;;;27.91;nan;100533.03;5103867;28;20028;-68
2022/06/04 10:21:35;;;;;;;10.43;5.47;;;;;;;27.94;nan;100526.16;5097019;28;20413;-67
2022/06/04 10:24:04;;;;;;;8.32;5.10;;;;;;;28.03;nan;100513.28;5091543;28;20024;-67
2022/06/04 10:26:42;;;;;;;14.18;5.20;;;;;;;28.11;nan;100536.75;5085153;28;20072;-68
2022/06/04 10:29:27;;;;;;;5.88;4.90;;;;;;;28.18;nan;100530.75;5079921;28;20059;-67
2022/06/04 10:31:59;;;;;;;11.60;5.60;;;;;;;28.24;nan;100542.16;5097953;28;20042;-67
2022/06/04 10:34:50;;;;;;;8.45;5.13;;;;;;;28.26;nan;100526.38;5103774;28;20039;-67
2022/06/04 10:37:18;;;;;;;9.13;4.70;;;;;;;28.37;nan;100547.22;5110853;28;20031;-67
2022/06/04 10:39:58;;;;;;;7.07;4.95;;;;;;;28.43;nan;100536.94;5072639;28;20512;-67
2022/06/04 10:42:42;;;;;;;12.98;5.60;;;;;;;28.48;nan;100517.75;5066909;28;20119;-68
2022/06/04 10:45:22;;;;;;;10.57;5.32;;;;;;;28.55;nan;100511.75;5067551;28;20032;-68
2022/06/04 10:47:55;;;;;;;7.30;4.70;;;;;;;28.61;nan;100543.69;5068475;28;20123;-68
2022/06/04 10:50:30;;;;;;;8.52;5.15;;;;;;;28.67;nan;100517.13;5073736;28;20058;-67
2022/06/04 10:53:22;;;;;;;8.35;5.20;;;;;;;28.73;nan;100547.47;5068487;28;20040;-68
2022/06/04 10:55:54;;;;;;;7.78;5.30;;;;;;;28.68;nan;100543.09;5059644;28;20081;-68
2022/06/04 10:58:38;;;;;;;9.65;5.07;;;;;;;28.77;nan;100515.84;5070549;28;20020;-68
2022/06/04 11:01:31;;;;;;;12.73;5.32;;;;;;;28.75;nan;100499.91;5068870;28;20051;-67
2022/06/04 11:04:07;;;;;;;9.10;5.47;;;;;;;28.78;nan;100490.31;5066077;28;20835;-67
2022/06/04 11:06:40;;;;;;;7.30;5.13;;;;;;;28.83;nan;100488.16;5070692;28;20024;-68
2022/06/04 11:09:13;;;;;;;7.93;4.90;;;;;;;28.82;nan;100488.50;5070113;28;20046;-68
2022/06/04 11:11:46;;;;;;;6.18;5.55;;;;;;;28.82;nan;100488.50;5071418;28;20032;-67
2022/06/04 11:14:40;;;;;;;9.95;5.35;;;;;;;28.87;nan;100515.34;5070123;28;20033;-67
2022/06/04 11:17:11;;;;;;;7.35;5.03;;;;;;;28.83;nan;100506.34;5059189;28;20092;-68
2022/06/04 11:19:42;;;;;;;12.48;5.47;;;;;;;28.90;nan;100497.59;5066874;28;20052;-68
2022/06/04 11:22:22;;;;;;;8.15;4.80;;;;;;;28.84;nan;100473.47;5066880;28;20123;-67
2022/06/04 11:24:52;;;;;;;12.43;5.50;;;;;;;28.92;nan;100489.91;5068865;28;20028;-68
2022/06/04 11:27:25;;;;;;;7.20;5.20;;;;;;;29.00;nan;100486.28;5069200;28;20040;-67
2022/06/04 11:29:53;;;;;;;11.63;5.55;;;;;;;29.08;nan;100479.91;5068473;28;20106;-68
2022/06/04 11:32:52;;;;;;;10.13;5.60;;;;;;;29.19;nan;100489.13;5063273;28;20043;-68
2022/06/04 11:35:44;;;;;;;10.27;5.47;;;;;;;29.24;nan;100493.50;5066715;28;20132;-68
2022/06/04 11:38:45;;;;;;;13.80;4.93;;;;;;;29.27;nan;100481.94;5070612;28;20040;-68
2022/06/04 11:41:36;;;;;;;6.95;5.10;;;;;;;29.33;nan;100490.59;5031524;28;20057;-69
2022/06/04 11:44:30;;;;;;;8.20;5.35;;;;;;;29.35;nan;100456.56;5036279;28;20045;-68
2022/06/04 11:47:17;;;;;;;10.23;5.30;;;;;;;29.44;nan;100454.47;5036344;28;20053;-69
2022/06/04 11:49:51;;;;;;;7.90;5.20;;;;;;;29.46;nan;100403.34;5034574;28;20392;-68
2022/06/04 11:52:30;;;;;;;6.55;5.07;;;;;;;29.46;nan;100449.47;5031195;28;20052;-68
2022/06/04 11:55:25;;;;;;;9.90;5.95;;;;;;;29.47;nan;100475.47;5040696;28;20037;-69
2022/06/04 11:57:59;;;;;;;6.95;5.18;;;;;;;29.57;nan;100454.34;5050965;28;20529;-69
2022/06/04 12:00:33;;;;;;;8.57;5.18;;;;;;;29.58;nan;100497.44;5048883;28;20083;-69
2022/06/04 12:03:21;;;;;;;8.18;5.10;;;;;;;29.64;nan;100459.94;5042363;28;20028;-68
2022/06/04 12:06:01;;;;;;;8.93;5.30;;;;;;;29.65;nan;100440.59;5042724;28;20037;-68